createdAt,value
2023-03-05T00:01:55.644Z,0.66
2023-03-05T00:04:26.984Z,0.66
2023-03-05T00:06:58.593Z,0.73
2023-03-05T00:09:29.174Z,0.84
2023-03-05T00:12:02.366Z,0.73
2023-03-05T00:14:33.813Z,0.66
2023-03-05T00:17:09.081Z,0.70
2023-03-05T00:19:39.676Z,0.76
2023-03-05T00:22:10.323Z,0.76
2023-03-05T00:24:40.928Z,0.79
2023-03-05T00:27:13.135Z,0.79
2023-03-05T00:29:43.703Z,0.98
2023-03-05T00:32:14.409Z,1.06
2023-03-05T00:34:47.881Z,1.12
2023-03-05T00:37:18.436Z,1.33
2023-03-05T00:39:48.959Z,1.67
2023-03-05T00:42:21.063Z,2.00
2023-03-05T00:44:51.654Z,2.36
2023-03-05T00:47:22.184Z,2.68
2023-03-05T00:49:52.799Z,2.89
2023-03-05T00:52:23.397Z,3.11
2023-03-05T00:54:54.051Z,3.26
2023-03-05T00:57:26.389Z,3.45
2023-03-05T00:59:56.981Z,3.58
2023-03-05T01:02:29.656Z,3.67
2023-03-05T01:05:00.394Z,3.76
2023-03-05T01:07:30.974Z,3.92
2023-03-05T01:10:01.443Z,3.99
2023-03-05T01:12:33.547Z,3.79
2023-03-05T01:15:04.584Z,4.28
2023-03-05T01:17:35.378Z,4.31
2023-03-05T01:20:16.025Z,4.42
2023-03-05T01:22:46.724Z,4.51
2023-03-05T01:25:18.475Z,4.56
2023-03-05T01:27:50.569Z,4.71
2023-03-05T01:30:21.285Z,4.81
2023-03-05T01:32:51.749Z,4.90
2023-03-05T01:35:25.007Z,4.93
2023-03-05T01:37:56.130Z,4.99
2023-03-05T01:40:29.648Z,5.04
2023-03-05T01:43:04.137Z,4.89
2023-03-05T01:45:35.430Z,4.95
2023-03-05T01:48:06.276Z,5.06
2023-03-05T01:50:37.089Z,5.16
2023-03-05T01:53:09.285Z,5.30
2023-03-05T01:55:39.847Z,5.52
2023-03-05T01:58:15.398Z,5.59
2023-03-05T02:00:48.914Z,5.64
2023-03-05T02:03:19.906Z,5.62
2023-03-05T02:05:50.267Z,5.50
2023-03-05T02:08:23.417Z,5.34
2023-03-05T02:10:56.095Z,5.52
2023-03-05T02:13:32.419Z,5.68
2023-03-05T02:16:04.111Z,5.51
2023-03-05T02:18:34.710Z,5.65
2023-03-05T02:21:08.230Z,5.66
2023-03-05T02:23:39.846Z,5.77
2023-03-05T02:26:12.417Z,5.65
2023-03-05T02:28:46.385Z,5.85
2023-03-05T02:31:19.428Z,5.85
2023-03-05T02:33:51.435Z,5.86
2023-03-05T02:36:23.553Z,5.81
2023-03-05T02:38:54.493Z,5.87
2023-03-05T02:41:25.174Z,5.84
2023-03-05T02:43:55.712Z,6.04
2023-03-05T02:46:26.954Z,6.01
2023-03-05T02:48:59.687Z,6.19
2023-03-05T02:51:38.497Z,6.14
2023-03-05T02:54:10.589Z,6.34
2023-03-05T02:56:42.156Z,6.35
2023-03-05T02:59:13.640Z,6.35
2023-03-05T03:01:44.154Z,6.45
2023-03-05T03:04:14.795Z,6.44
2023-03-05T03:06:47.020Z,6.37
2023-03-05T03:09:19.862Z,6.31
2023-03-05T03:11:50.976Z,6.36
2023-03-05T03:14:22.118Z,6.38
2023-03-05T03:16:56.788Z,6.44
2023-03-05T03:19:27.470Z,6.39
2023-03-05T03:21:59.630Z,6.18
2023-03-05T03:24:33.514Z,6.50
2023-03-05T03:27:06.738Z,6.37
2023-03-05T03:29:38.035Z,6.73
2023-03-05T03:32:09.165Z,7.11
2023-03-05T03:34:39.666Z,7.37
2023-03-05T03:37:11.812Z,7.61
2023-03-05T03:39:42.318Z,7.71
2023-03-05T03:42:12.806Z,7.51
2023-03-05T03:44:43.323Z,7.59
2023-03-05T03:47:13.936Z,7.62
2023-03-05T03:49:44.435Z,7.63
2023-03-05T03:52:16.789Z,7.61
2023-03-05T03:54:47.368Z,7.56
2023-03-05T03:57:17.932Z,7.55
2023-03-05T03:59:48.447Z,7.56
2023-03-05T04:02:18.977Z,7.62
2023-03-05T04:04:49.521Z,7.62
2023-03-05T04:07:22.273Z,7.47
2023-03-05T04:09:52.937Z,7.19
2023-03-05T04:12:23.725Z,7.32
2023-03-05T04:14:54.535Z,7.07
2023-03-05T04:17:25.163Z,7.11
2023-03-05T04:19:55.694Z,7.10
2023-03-05T04:22:28.043Z,7.16
2023-03-05T04:24:58.876Z,7.17
2023-03-05T04:27:29.396Z,7.07
2023-03-05T04:30:00.327Z,7.19
2023-03-05T04:32:31.193Z,7.24
2023-03-05T04:35:01.838Z,7.13
2023-03-05T04:37:34.047Z,7.33
2023-03-05T04:40:05.613Z,7.48
2023-03-05T04:42:36.532Z,7.66
2023-03-05T04:45:08.705Z,7.76
2023-03-05T04:47:41.258Z,7.56
2023-03-05T04:50:13.830Z,7.42
2023-03-05T04:52:50.897Z,7.34
2023-03-05T04:55:21.867Z,7.57
2023-03-05T04:57:52.950Z,7.85
2023-03-05T05:00:24.039Z,7.62
2023-03-05T05:02:55.348Z,7.48
2023-03-05T05:05:27.444Z,6.94
2023-03-05T05:08:00.485Z,7.14
2023-03-05T05:10:33.831Z,7.08
2023-03-05T05:13:04.379Z,7.15
2023-03-05T05:15:36.466Z,7.03
2023-03-05T05:18:08.903Z,6.50
2023-03-05T05:20:39.310Z,7.02
2023-03-05T05:23:11.535Z,6.93
2023-03-05T05:25:42.220Z,6.82
2023-03-05T05:28:14.040Z,6.72
2023-03-05T05:30:44.604Z,6.57
2023-03-05T05:33:14.969Z,6.22
2023-03-05T05:35:46.055Z,6.30
2023-03-05T05:38:19.528Z,6.23
2023-03-05T05:40:50.897Z,5.99
2023-03-05T05:43:21.490Z,6.09
2023-03-05T05:45:53.128Z,6.03
2023-03-05T05:48:25.489Z,5.97
2023-03-05T05:50:55.934Z,5.89
2023-03-05T05:53:28.075Z,5.89
2023-03-05T05:55:58.575Z,5.83
2023-03-05T05:58:29.171Z,5.79
2023-03-05T06:00:59.917Z,5.74
2023-03-05T06:03:30.531Z,5.71
2023-03-05T06:06:01.153Z,5.67
2023-03-05T06:08:33.285Z,4.81
2023-03-05T06:11:03.865Z,5.57
2023-03-05T06:13:34.387Z,5.57
2023-03-05T06:16:07.501Z,5.29
2023-03-05T06:18:38.276Z,5.58
2023-03-05T06:21:10.848Z,5.61
2023-03-05T06:23:43.448Z,5.61
2023-03-05T06:26:16.668Z,5.87
2023-03-05T06:28:47.260Z,5.98
2023-03-05T06:31:22.219Z,5.87
2023-03-05T06:33:53.086Z,5.98
2023-03-05T06:42:01.358Z,5.95
2023-03-05T06:47:19.359Z,6.00
2023-03-05T06:49:49.858Z,6.05
2023-03-05T06:52:20.654Z,5.91
2023-03-05T06:54:56.712Z,6.06
2023-03-05T06:57:27.285Z,6.05
2023-03-05T06:59:57.979Z,6.02
2023-03-05T07:02:29.181Z,5.98
2023-03-05T07:04:59.652Z,5.98
2023-03-05T07:07:30.164Z,5.92
2023-03-05T07:12:47.522Z,5.76
2023-03-05T07:15:19.233Z,5.69
2023-03-05T07:17:49.911Z,5.59
2023-03-05T07:20:23.242Z,5.60
2023-03-05T07:22:57.361Z,5.60
2023-03-05T07:25:29.493Z,5.51
2023-03-05T07:30:47.401Z,5.34
2023-03-05T07:33:18.037Z,5.24
2023-03-05T07:35:48.667Z,5.06
2023-03-05T07:38:19.304Z,4.91
2023-03-05T07:40:53.200Z,4.79
2023-03-05T07:43:23.679Z,4.70
2023-03-05T07:45:54.191Z,4.62
2023-03-05T07:48:24.889Z,4.53
2023-03-05T07:56:47.235Z,4.15
2023-03-05T07:59:17.725Z,4.06
2023-03-05T08:01:48.650Z,3.98
2023-03-05T08:04:19.229Z,3.85
2023-03-05T08:06:51.017Z,3.17
2023-03-05T08:09:22.343Z,3.66
2023-03-05T08:11:57.546Z,3.60
2023-03-05T08:14:30.268Z,3.53
2023-03-05T08:19:47.506Z,3.32
2023-03-05T08:22:53.841Z,3.29
2023-03-05T08:25:33.170Z,3.22
2023-03-05T08:33:44.193Z,2.38
2023-03-05T08:36:14.953Z,2.93
2023-03-05T08:38:55.482Z,2.89
2023-03-05T08:41:34.094Z,2.78
2023-03-05T08:44:07.144Z,2.80
2023-03-05T08:46:38.175Z,2.75
2023-03-05T08:49:09.796Z,2.65
2023-03-05T08:51:40.409Z,2.67
2023-03-05T08:54:14.780Z,2.66
2023-03-05T08:56:48.221Z,2.62
2023-03-05T08:59:20.528Z,2.62
2023-03-05T09:01:52.736Z,2.59
2023-03-05T09:04:27.511Z,2.55
2023-03-05T09:06:58.532Z,2.53
2023-03-05T09:09:35.280Z,2.52
2023-03-05T09:12:21.099Z,2.52
2023-03-05T09:14:53.296Z,2.47
2023-03-05T09:17:32.651Z,2.42
2023-03-05T09:20:07.505Z,1.98
2023-03-05T09:22:38.266Z,2.42
2023-03-05T09:25:10.232Z,2.37
2023-03-05T09:27:46.293Z,2.33
2023-03-05T09:30:24.829Z,2.36
2023-03-05T09:32:56.141Z,2.24
2023-03-05T09:35:29.986Z,2.34
2023-03-05T09:38:02.913Z,2.27
2023-03-05T09:40:42.375Z,2.19
2023-03-05T09:43:24.861Z,2.18
2023-03-05T09:46:18.208Z,2.14
2023-03-05T09:48:54.464Z,2.11
2023-03-05T09:51:33.191Z,2.07
2023-03-05T09:54:07.634Z,2.07
2023-03-05T09:56:41.622Z,1.99
2023-03-05T09:59:26.762Z,1.34
2023-03-05T10:02:04.406Z,2.00
2023-03-05T10:04:47.666Z,2.04
2023-03-05T10:07:23.691Z,2.05
2023-03-05T10:10:03.222Z,2.03
2023-03-05T10:12:45.977Z,2.04
2023-03-05T10:15:31.661Z,1.80
2023-03-05T10:18:30.054Z,1.98
2023-03-05T10:21:09.908Z,1.65
2023-03-05T10:24:03.097Z,1.90
2023-03-05T10:30:09.886Z,2.00
2023-03-05T10:32:57.512Z,2.03
2023-03-05T10:36:14.991Z,2.06
2023-03-05T10:39:41.935Z,2.07
2023-03-05T10:45:53.049Z,1.93
2023-03-05T10:52:00.951Z,1.75
2023-03-05T10:54:46.782Z,1.52
2023-03-05T10:57:29.473Z,1.46
2023-03-05T11:00:28.328Z,1.46
2023-03-05T11:03:21.201Z,1.43
2023-03-05T11:06:05.453Z,1.37
2023-03-05T11:08:57.891Z,0.68
2023-03-05T11:12:35.714Z,1.07
2023-03-05T11:15:29.024Z,0.94
2023-03-05T11:18:35.525Z,0.56
2023-03-05T11:21:28.359Z,0.30
2023-03-05T11:24:26.458Z,0.86
2023-03-05T11:27:00.310Z,0.95
2023-03-05T11:29:33.718Z,0.41
2023-03-05T11:32:22.842Z,1.05
2023-03-05T11:34:54.117Z,1.15
2023-03-05T11:37:29.670Z,1.14
2023-03-05T11:40:28.627Z,1.20
2023-03-05T11:43:02.215Z,1.37
2023-03-05T11:48:30.535Z,1.29
2023-03-05T11:51:03.438Z,1.58
2023-03-05T11:53:37.755Z,1.50
2023-03-05T11:56:59.773Z,1.76
2023-03-05T11:59:46.978Z,1.55
2023-03-05T12:02:26.307Z,1.45
2023-03-05T12:05:13.935Z,1.69
2023-03-05T12:07:50.023Z,1.70
2023-03-05T12:10:28.216Z,1.68
2023-03-05T12:16:37.279Z,1.70
2023-03-05T12:19:33.707Z,1.63
2023-03-05T12:22:21.784Z,1.36
2023-03-05T12:24:53.258Z,1.78
2023-03-05T12:27:39.055Z,1.66
2023-03-05T12:30:51.895Z,1.51
2023-03-05T12:33:42.668Z,1.32
2023-03-05T12:36:40.833Z,1.47
2023-03-05T12:39:45.284Z,1.43
2023-03-05T12:42:54.646Z,1.41
2023-03-05T12:45:36.827Z,1.42
2023-03-05T12:48:48.104Z,1.36
2023-03-05T12:51:32.333Z,1.31
2023-03-05T12:54:32.695Z,1.24
2023-03-05T12:57:24.264Z,1.23
2023-03-05T13:00:08.787Z,1.33
2023-03-05T13:02:43.952Z,1.34
2023-03-05T13:05:24.116Z,1.13
2023-03-05T13:07:55.097Z,1.25
2023-03-05T13:10:49.963Z,1.29
2023-03-05T13:13:21.559Z,1.34
2023-03-05T13:15:53.750Z,1.24
2023-03-05T13:18:24.894Z,1.21
2023-03-05T13:21:10.003Z,1.23
2023-03-05T13:24:06.544Z,0.86
2023-03-05T13:26:50.880Z,1.11
2023-03-05T13:29:27.226Z,0.63
2023-03-05T13:32:04.210Z,1.11
2023-03-05T13:34:47.579Z,1.40
2023-03-05T13:38:15.925Z,1.37
2023-03-05T13:40:47.096Z,1.58
2023-03-05T13:43:23.617Z,1.58
2023-03-05T13:46:01.225Z,1.59
2023-03-05T13:48:34.813Z,1.64
2023-03-05T13:51:11.617Z,1.64
2023-03-05T13:53:45.097Z,1.55
2023-03-05T13:56:19.167Z,1.62
2023-03-05T13:59:00.475Z,1.70
2023-03-05T14:02:09.101Z,1.39
2023-03-05T14:05:10.075Z,1.58
2023-03-05T14:07:45.476Z,1.68
2023-03-05T14:10:36.981Z,1.62
2023-03-05T14:13:14.637Z,1.59
2023-03-05T14:15:45.832Z,1.60
2023-03-05T14:18:23.226Z,1.56
2023-03-05T14:21:09.758Z,1.55
2023-03-05T14:23:50.520Z,1.49
2023-03-05T14:26:29.246Z,1.59
2023-03-05T14:29:05.229Z,1.47
2023-03-05T14:31:39.632Z,1.51
2023-03-05T14:34:24.402Z,1.48
2023-03-05T14:37:00.122Z,1.51
2023-03-05T14:39:33.662Z,1.49
2023-03-05T14:42:32.505Z,1.48
2023-03-05T14:45:04.805Z,1.12
2023-03-05T14:47:39.415Z,1.48
2023-03-05T14:50:11.221Z,0.91
2023-03-05T14:52:43.099Z,1.55
2023-03-05T14:55:20.085Z,1.48
2023-03-05T14:57:53.654Z,1.42
2023-03-05T15:00:54.150Z,1.25
2023-03-05T15:03:31.776Z,1.50
2023-03-05T15:06:22.846Z,1.48
2023-03-05T15:09:03.595Z,1.46
2023-03-05T15:11:36.476Z,1.44
2023-03-05T15:14:11.292Z,1.47
2023-03-05T15:16:50.200Z,1.48
2023-03-05T15:19:24.206Z,1.51
2023-03-05T15:21:55.389Z,1.50
2023-03-05T15:24:27.022Z,1.38
2023-03-05T15:26:59.910Z,1.36
2023-03-05T15:29:33.166Z,1.29
2023-03-05T15:32:06.152Z,1.06
2023-03-05T15:34:38.875Z,1.29
2023-03-05T15:37:16.095Z,1.33
2023-03-05T15:39:51.621Z,1.28
2023-03-05T15:42:34.816Z,1.23
2023-03-05T15:45:12.107Z,1.08
2023-03-05T15:47:45.190Z,1.07
2023-03-05T15:50:16.744Z,1.14
2023-03-05T15:52:53.639Z,1.13
2023-03-05T15:55:26.416Z,1.11
2023-03-05T16:00:48.631Z,0.90
2023-03-05T16:03:29.023Z,0.51
2023-03-05T16:06:08.030Z,0.97
2023-03-05T16:08:43.814Z,1.07
2023-03-05T16:11:24.236Z,1.10
2023-03-05T16:13:58.416Z,1.12
2023-03-05T16:16:34.640Z,0.90
2023-03-05T16:19:09.077Z,0.65
2023-03-05T16:21:41.940Z,0.80
2023-03-05T16:24:14.320Z,1.03
2023-03-05T16:26:55.338Z,1.05
2023-03-05T16:29:30.501Z,1.02
2023-03-05T16:32:05.884Z,1.10
2023-03-05T16:34:39.496Z,1.09
2023-03-05T16:37:24.915Z,1.17
2023-03-05T16:40:02.129Z,1.23
2023-03-05T16:42:36.355Z,1.19
2023-03-05T16:45:15.284Z,1.18
2023-03-05T16:47:56.717Z,0.95
2023-03-05T16:50:34.919Z,1.23
2023-03-05T16:53:10.486Z,1.35
2023-03-05T16:55:44.282Z,1.20
2023-03-05T16:58:21.390Z,1.40
2023-03-05T17:00:58.800Z,1.38
2023-03-05T17:03:36.853Z,1.39
2023-03-05T17:06:17.562Z,1.15
2023-03-05T17:08:53.572Z,1.43
2023-03-05T17:11:29.499Z,1.48
2023-03-05T17:14:10.612Z,1.40
2023-03-05T17:16:42.755Z,1.48
2023-03-05T17:19:19.198Z,1.27
2023-03-05T17:21:53.663Z,1.44
2023-03-05T17:24:34.281Z,1.45
2023-03-05T17:27:07.731Z,1.44
2023-03-05T17:29:40.198Z,1.38
2023-03-05T17:32:13.604Z,1.38
2023-03-05T17:34:52.942Z,1.38
2023-03-05T17:37:30.874Z,1.36
2023-03-05T17:40:02.889Z,1.28
2023-03-05T17:42:37.392Z,1.31
2023-03-05T17:45:14.660Z,1.24
2023-03-05T17:47:50.236Z,1.18
2023-03-05T17:50:24.361Z,1.28
2023-03-05T17:53:00.678Z,1.29
2023-03-05T17:55:40.707Z,1.28
2023-03-05T17:58:13.321Z,1.23
2023-03-05T18:00:50.453Z,1.20
2023-03-05T18:03:27.215Z,1.17
2023-03-05T18:06:01.067Z,1.15
2023-03-05T18:08:36.358Z,1.10
2023-03-05T18:11:12.596Z,1.06
2023-03-05T18:13:43.804Z,1.04
2023-03-05T18:16:18.988Z,1.05
2023-03-05T18:18:52.050Z,1.04
2023-03-05T18:21:34.105Z,1.02
2023-03-05T18:24:07.196Z,1.08
2023-03-05T18:26:45.643Z,0.80
2023-03-05T18:29:29.279Z,1.03
2023-03-05T18:32:01.033Z,0.54
2023-03-05T18:34:34.291Z,1.16
2023-03-05T18:37:20.113Z,1.16
2023-03-05T18:40:13.810Z,1.18
2023-03-05T18:42:50.389Z,1.29
2023-03-05T18:45:28.587Z,1.29
2023-03-05T18:48:13.776Z,1.33
2023-03-05T18:50:48.321Z,1.30
2023-03-05T18:53:29.578Z,1.30
2023-03-05T18:56:02.845Z,1.39
2023-03-05T18:58:34.445Z,1.40
2023-03-05T19:01:05.097Z,1.44
2023-03-05T19:03:37.813Z,1.28
2023-03-05T19:06:09.271Z,1.53
2023-03-05T19:08:45.214Z,1.55
2023-03-05T19:11:21.409Z,1.47
2023-03-05T19:13:54.946Z,1.53
2023-03-05T19:16:30.558Z,1.56
2023-03-05T19:19:07.227Z,1.54
2023-03-05T19:21:42.021Z,1.57
2023-03-05T19:24:17.198Z,1.40
2023-03-05T19:26:48.802Z,1.60
2023-03-05T19:29:19.460Z,1.63
2023-03-05T19:31:49.995Z,1.59
2023-03-05T19:34:21.406Z,1.53
2023-03-05T19:36:55.878Z,1.54
2023-03-05T19:39:29.232Z,1.25
2023-03-05T19:41:59.832Z,1.55
2023-03-05T19:44:30.863Z,1.42
2023-03-05T19:47:01.749Z,1.53
2023-03-05T19:49:32.614Z,1.51
2023-03-05T19:52:05.559Z,1.51
2023-03-05T19:54:40.689Z,1.53
2023-03-05T19:57:14.045Z,1.52
2023-03-05T19:59:47.011Z,1.47
2023-03-05T20:02:19.788Z,1.50
2023-03-05T20:04:53.043Z,1.53
2023-03-05T20:07:23.490Z,1.51
2023-03-05T20:09:56.227Z,1.48
2023-03-05T20:12:26.809Z,1.47
2023-03-05T20:14:57.486Z,1.56
2023-03-05T20:17:27.932Z,1.54
2023-03-05T20:19:59.881Z,1.53
2023-03-05T20:22:30.382Z,1.50
2023-03-05T20:25:02.457Z,1.53
2023-03-05T20:27:32.911Z,1.55
2023-03-05T20:30:03.485Z,1.54
2023-03-05T20:32:34.049Z,0.91
2023-03-05T20:35:04.490Z,1.53
2023-03-05T20:37:40.928Z,1.51
2023-03-05T20:40:14.599Z,1.50
2023-03-05T20:42:45.234Z,1.48
2023-03-05T20:45:15.943Z,1.28
2023-03-05T20:47:47.348Z,1.43
2023-03-05T20:50:17.920Z,1.42
2023-03-05T20:52:48.632Z,1.39
2023-03-05T20:55:20.991Z,1.39
2023-03-05T20:57:51.450Z,1.35
2023-03-05T21:00:22.576Z,1.37
2023-03-05T21:02:55.510Z,1.23
2023-03-05T21:05:27.284Z,1.37
2023-03-05T21:07:57.843Z,1.43
2023-03-05T21:10:30.647Z,1.44
2023-03-05T21:13:01.166Z,1.41
2023-03-05T21:15:32.538Z,1.20
2023-03-05T21:18:02.989Z,1.45
2023-03-05T21:20:33.581Z,1.48
2023-03-05T21:23:05.001Z,1.52
2023-03-05T21:25:37.477Z,1.35
2023-03-05T21:28:11.246Z,1.56
2023-03-05T21:30:44.488Z,1.62
2023-03-05T21:33:17.332Z,1.62
2023-03-05T21:35:48.961Z,1.59
2023-03-05T21:38:19.563Z,1.72
2023-03-05T21:40:55.830Z,1.73
2023-03-05T21:43:27.895Z,1.80
2023-03-05T21:45:59.087Z,1.82
2023-03-05T21:48:30.374Z,1.86
2023-03-05T21:51:01.812Z,1.85
2023-03-05T21:53:33.037Z,1.94
2023-03-05T21:56:16.431Z,1.97
2023-03-05T21:58:47.608Z,2.03
2023-03-05T22:01:22.198Z,1.99
2023-03-05T22:03:55.047Z,2.11
2023-03-05T22:06:26.221Z,2.16
2023-03-05T22:09:00.116Z,2.21
2023-03-05T22:11:33.139Z,2.26
2023-03-05T22:14:04.563Z,2.32
2023-03-05T22:16:35.773Z,2.40
2023-03-05T22:19:08.155Z,2.39
2023-03-05T22:21:39.312Z,2.50
2023-03-05T22:24:10.984Z,2.55
2023-03-05T22:26:45.434Z,2.57
2023-03-05T22:29:17.924Z,2.64
2023-03-05T22:31:49.098Z,2.70
2023-03-05T22:34:20.346Z,2.78
2023-03-05T22:36:51.566Z,2.80
2023-03-05T22:39:22.777Z,2.84
2023-03-05T22:41:55.825Z,2.91
2023-03-05T22:44:27.129Z,2.53
2023-03-05T22:46:58.351Z,2.96
2023-03-05T22:49:29.633Z,3.08
2023-03-05T22:52:00.869Z,3.18
2023-03-05T22:54:31.928Z,3.21
2023-03-05T22:57:05.237Z,3.18
2023-03-05T22:59:36.687Z,3.34
2023-03-05T23:02:08.209Z,3.35
2023-03-05T23:04:50.044Z,3.41
2023-03-05T23:07:23.222Z,3.52
2023-03-05T23:09:59.701Z,3.59
2023-03-05T23:12:35.570Z,3.66
2023-03-05T23:15:10.204Z,3.73
2023-03-05T23:17:41.646Z,3.84
2023-03-05T23:20:16.469Z,3.95
2023-03-05T23:22:48.482Z,3.98
2023-03-05T23:25:21.168Z,3.98
2023-03-05T23:27:54.475Z,4.00
2023-03-05T23:30:26.534Z,3.63
2023-03-05T23:32:59.635Z,4.07
2023-03-05T23:35:32.387Z,4.17
2023-03-05T23:38:05.022Z,4.12
2023-03-05T23:40:39.425Z,4.11
2023-03-05T23:43:12.558Z,4.24
2023-03-05T23:45:44.720Z,4.29
2023-03-05T23:48:15.990Z,4.35
2023-03-05T23:50:49.920Z,4.42
2023-03-05T23:53:22.824Z,4.52
2023-03-05T23:55:54.863Z,4.54
2023-03-05T23:58:28.200Z,4.65
